createdAt,value
2023-02-12T00:02:56.378Z,8.46
2023-02-12T00:13:17.740Z,8.43
2023-02-12T00:23:41.141Z,8.40
2023-02-12T00:34:02.631Z,8.31
2023-02-12T00:44:23.993Z,8.29
2023-02-12T00:54:45.462Z,8.31
2023-02-12T01:05:07.030Z,8.33
2023-02-12T01:15:28.454Z,8.31
2023-02-12T01:25:49.898Z,8.34
2023-02-12T01:36:11.339Z,8.28
2023-02-12T01:46:32.847Z,8.30
2023-02-12T01:56:54.549Z,8.32
2023-02-12T02:07:16.371Z,8.20
2023-02-12T02:17:52.927Z,8.16
2023-02-12T02:28:33.497Z,8.05
2023-02-12T02:39:05.280Z,8.08
2023-02-12T02:49:33.775Z,8.08
2023-02-12T02:59:58.311Z,8.04
2023-02-12T03:10:22.909Z,8.08
2023-02-12T03:20:53.114Z,8.09
2023-02-12T03:31:29.914Z,8.12
2023-02-12T03:42:13.595Z,8.12
2023-02-12T03:52:35.135Z,8.10
2023-02-12T04:02:56.751Z,8.09
2023-02-12T04:13:28.661Z,8.07
2023-02-12T04:23:53.758Z,8.06
2023-02-12T04:34:26.665Z,8.07
2023-02-12T04:44:48.116Z,8.10
2023-02-12T04:55:09.496Z,8.09
2023-02-12T05:05:30.890Z,8.07
2023-02-12T05:15:52.242Z,8.06
2023-02-12T05:26:14.886Z,8.09
2023-02-12T05:36:36.265Z,8.07
2023-02-12T05:46:57.633Z,8.00
2023-02-12T05:57:19.066Z,7.97
2023-02-12T06:07:40.461Z,8.00
2023-02-12T06:18:01.851Z,7.96
2023-02-12T06:28:23.421Z,7.93
2023-02-12T06:38:44.928Z,7.97
2023-02-12T06:49:06.309Z,7.97
2023-02-12T06:59:27.704Z,8.00
2023-02-12T07:09:49.093Z,7.99
2023-02-12T07:20:10.677Z,7.99
2023-02-12T07:30:32.039Z,7.98
2023-02-12T07:40:53.600Z,8.03
2023-02-12T07:51:16.147Z,8.02
2023-02-12T08:01:42.638Z,8.05
2023-02-12T08:12:04.117Z,8.11
2023-02-12T08:22:25.567Z,8.20
2023-02-12T08:32:49.078Z,8.22
2023-02-12T08:43:10.531Z,8.26
2023-02-12T08:53:31.989Z,8.28
2023-02-12T09:03:53.722Z,8.37
2023-02-12T09:14:15.993Z,8.37
2023-02-12T09:24:37.494Z,8.38
2023-02-12T09:34:58.880Z,8.46
2023-02-12T09:45:21.554Z,8.43
2023-02-12T09:55:43.424Z,8.52
2023-02-12T10:06:06.634Z,8.56
2023-02-12T10:16:36.057Z,8.58
2023-02-12T10:27:02.522Z,8.53
2023-02-12T10:37:26.981Z,8.52
2023-02-12T10:47:51.502Z,8.45
2023-02-12T10:58:23.091Z,8.48
2023-02-12T11:08:44.889Z,8.47
2023-02-12T11:19:20.661Z,8.51
2023-02-12T11:29:42.836Z,8.66
2023-02-12T11:40:04.567Z,8.80
2023-02-12T11:50:30.698Z,8.86
2023-02-12T12:00:55.533Z,8.85
2023-02-12T12:11:22.556Z,8.98
2023-02-12T12:21:54.375Z,8.96
2023-02-12T12:32:16.846Z,9.00
2023-02-12T12:42:38.249Z,8.99
2023-02-12T12:53:10.342Z,9.07
2023-02-12T13:03:34.965Z,9.09
2023-02-12T13:14:19.647Z,9.24
2023-02-12T13:24:47.463Z,9.37
2023-02-12T13:35:14.673Z,9.49
2023-02-12T13:45:51.391Z,9.75
2023-02-12T13:56:33.060Z,9.85
2023-02-12T14:06:58.687Z,9.88
2023-02-12T14:17:33.354Z,9.85
2023-02-12T14:27:57.593Z,9.88
2023-02-12T14:38:19.082Z,9.91
2023-02-12T14:49:06.072Z,9.84
2023-02-12T14:59:28.798Z,9.86
2023-02-12T15:10:09.912Z,9.88
2023-02-12T15:20:34.795Z,9.90
2023-02-12T15:30:56.637Z,9.86
2023-02-12T15:41:28.983Z,9.88
2023-02-12T15:51:50.779Z,9.89
2023-02-12T16:02:21.178Z,9.93
2023-02-12T16:12:42.650Z,9.95
2023-02-12T16:23:05.595Z,9.96
2023-02-12T16:33:34.098Z,9.93
2023-02-12T16:44:01.613Z,9.93
2023-02-12T16:54:29.261Z,9.92
2023-02-12T17:04:50.711Z,9.85
2023-02-12T17:15:17.184Z,9.75
2023-02-12T17:25:38.595Z,9.62
2023-02-12T17:36:00.460Z,9.53
2023-02-12T17:46:23.282Z,9.44
2023-02-12T17:56:44.665Z,9.50
2023-02-12T18:07:08.009Z,9.48
2023-02-12T18:17:29.577Z,9.44
2023-02-12T18:27:50.943Z,9.43
2023-02-12T18:38:12.331Z,9.46
2023-02-12T18:48:33.723Z,9.52
2023-02-12T18:58:58.946Z,9.51
2023-02-12T19:09:21.635Z,9.48
2023-02-12T19:19:43.241Z,9.38
2023-02-12T19:30:05.377Z,9.23
2023-02-12T19:40:26.741Z,9.24
2023-02-12T19:50:48.103Z,9.23
2023-02-12T20:01:11.403Z,9.20
2023-02-12T20:11:37.656Z,9.13
2023-02-12T20:22:01.425Z,9.04
2023-02-12T20:32:22.824Z,9.08
2023-02-12T20:42:44.227Z,9.08
2023-02-12T20:53:06.115Z,9.07
2023-02-12T21:03:27.507Z,9.01
2023-02-12T21:13:59.029Z,8.99
2023-02-12T21:24:25.364Z,8.99
2023-02-12T21:34:48.811Z,8.86
2023-02-12T21:45:10.259Z,8.90
2023-02-12T21:55:31.642Z,8.90
2023-02-12T22:05:53.007Z,8.92
2023-02-12T22:16:24.579Z,8.91
2023-02-12T22:26:46.110Z,8.92
2023-02-12T22:37:07.482Z,8.88
2023-02-12T22:47:32.007Z,8.84
2023-02-12T22:57:53.350Z,8.88
2023-02-12T23:08:14.746Z,8.89
2023-02-12T23:18:36.160Z,8.94
2023-02-12T23:28:58.095Z,8.90
2023-02-12T23:39:19.522Z,8.86
2023-02-12T23:49:40.986Z,8.81
